Time;durP1;ratioP1;P1;durP2;ratioP2;P2;SDS_P1;SDS_P2;PMS_P1;PMS_P2;Temp;Humidity;BMP_temperature;BMP_pressure;BME280_temperature;BME280_humidity;BME280_pressure;Samples;Min_cycle;Max_cycle;Signal;HPM_P1;HPM_P2
2021/06/10 00:01:46;;;;;;;;;;;;;;;27.24;49.27;100391.78;4998807;28;784;-31
2021/06/10 00:04:11;;;;;;;;;;;;;;;27.22;49.21;100386.59;5034365;28;1910;-27
2021/06/10 00:06:36;;;;;;;;;;;;;;;27.25;49.16;100383.50;5017641;28;932;-27
2021/06/10 00:09:02;;;;;;;;;;;;;;;27.26;49.17;100378.91;4998820;28;765;-30
2021/06/10 00:11:27;;;;;;;;;;;;;;;27.29;48.72;100380.41;4998470;28;828;-29
2021/06/10 00:13:52;;;;;;;;;;;;;;;27.22;49.12;100385.75;4998247;28;1063;-30
2021/06/10 00:16:18;;;;;;;;;;;;;;;27.36;48.68;100376.72;4998387;28;816;-28
2021/06/10 00:18:43;;;;;;;;;;;;;;;27.26;48.70;100384.31;4998268;28;760;-29
2021/06/10 00:21:09;;;;;;;;;;;;;;;27.32;48.58;100380.03;4997511;28;989;-27
2021/06/10 00:23:34;;;;;;;;;;;;;;;27.24;48.56;100384.50;4998250;28;785;-29
2021/06/10 00:25:59;;;;;;;;;;;;;;;27.35;48.11;100385.03;4997946;28;1918;-27
2021/06/10 00:28:25;;;;;;;;;;;;;;;27.27;48.55;100375.19;4997768;28;796;-27
2021/06/10 00:30:50;;;;;;;;;;;;;;;27.34;48.34;100375.28;4997725;28;752;-29
2021/06/10 00:33:15;;;;;;;;;;;;;;;27.35;48.14;100377.78;4998068;28;753;-29
2021/06/10 00:35:41;;;;;;;;;;;;;;;27.37;47.99;100373.03;4997733;28;1012;-29
2021/06/10 00:38:06;;;;;;;;;;;;;;;27.45;48.00;100369.34;4997557;28;1003;-26
2021/06/10 00:40:32;;;;;;;;;;;;;;;27.41;48.02;100373.44;4997902;28;780;-29
2021/06/10 00:42:58;;;;;;;;;;;;;;;27.38;48.01;100371.13;4997980;28;773;-29
2021/06/10 00:45:24;;;;;;;;;;;;;;;27.34;47.90;100359.06;4997169;28;1906;-26
2021/06/10 00:47:50;;;;;;;;;;;;;;;27.39;48.01;100356.63;4997779;28;793;-26
2021/06/10 00:50:16;;;;;;;;;;;;;;;27.33;48.30;100350.13;4997923;28;794;-28
2021/06/10 00:52:41;;;;;;;;;;;;;;;27.34;47.85;100350.97;4996736;28;938;-28
2021/06/10 00:55:07;;;;;;;;;;;;;;;27.34;48.17;100351.78;4997375;28;903;-29
2021/06/10 00:57:32;;;;;;;;;;;;;;;27.33;48.02;100349.28;4997881;28;722;-28
2021/06/10 00:59:57;;;;;;;;;;;;;;;27.31;48.69;100354.06;4979701;28;793;-28
2021/06/10 01:02:23;;;;;;;;;;;;;;;27.34;48.51;100343.66;5003951;28;1118;-28
2021/06/10 01:04:48;;;;;;;;;;;;;;;27.39;48.21;100357.44;5036858;28;1909;-29
2021/06/10 01:07:21;;;;;;;;;;;;;;;27.34;48.68;100354.47;5006606;28;987;-27
2021/06/10 01:09:47;;;;;;;;;;;;;;;27.34;48.81;100345.56;4979841;28;870;-29
2021/06/10 01:12:36;;;;;;;;;;;;;;;27.34;48.42;100334.75;4980152;28;769;-28
2021/06/10 01:15:07;;;;;;;;;;;;;;;27.32;48.96;100336.81;4988646;28;1996;-27
2021/06/10 01:17:33;;;;;;;;;;;;;;;27.28;48.77;100336.34;4997218;28;808;-29
2021/06/10 01:20:02;;;;;;;;;;;;;;;27.30;48.88;100338.84;4997326;28;805;-29
2021/06/10 01:22:27;;;;;;;;;;;;;;;27.30;48.84;100338.84;4996134;28;1032;-28
2021/06/10 01:25:06;;;;;;;;;;;;;;;27.23;48.91;100339.66;4997107;28;1918;-28
2021/06/10 01:27:32;;;;;;;;;;;;;;;27.19;49.09;100330.28;4997252;28;813;-28
2021/06/10 01:29:59;;;;;;;;;;;;;;;27.21;49.44;100328.19;4997110;28;753;-27
2021/06/10 01:32:24;;;;;;;;;;;;;;;27.25;49.31;100324.09;4980026;28;821;-31
2021/06/10 01:34:50;;;;;;;;;;;;;;;27.20;49.38;100323.84;4979851;28;749;-28
2021/06/10 01:37:15;;;;;;;;;;;;;;;27.17;49.69;100313.44;4978259;28;1017;-29
2021/06/10 01:39:41;;;;;;;;;;;;;;;27.14;49.88;100325.44;4997166;28;797;-28
2021/06/10 01:42:06;;;;;;;;;;;;;;;27.23;49.89;100319.91;4979753;28;821;-30
2021/06/10 01:44:31;;;;;;;;;;;;;;;27.17;49.74;100315.28;4979076;28;1977;-30
2021/06/10 01:46:57;;;;;;;;;;;;;;;27.18;49.63;100315.09;4979713;28;905;-27
2021/06/10 01:49:22;;;;;;;;;;;;;;;27.14;50.13;100311.94;4997197;28;749;-30
2021/06/10 01:51:47;;;;;;;;;;;;;;;27.10;50.27;100307.97;4989763;28;997;-27
2021/06/10 01:54:13;;;;;;;;;;;;;;;27.11;49.92;100311.50;4999190;28;805;-31
2021/06/10 01:56:38;;;;;;;;;;;;;;;27.10;50.07;100309.81;5016501;28;793;-29
2021/06/10 01:59:04;;;;;;;;;;;;;;;27.12;50.57;100307.78;5016585;28;784;-29
2021/06/10 02:01:29;;;;;;;;;;;;;;;27.08;50.48;100315.41;5016620;28;875;-28
2021/06/10 02:03:55;;;;;;;;;;;;;;;27.16;50.25;100321.72;5014712;28;1910;-27
2021/06/10 02:06:20;;;;;;;;;;;;;;;27.16;50.32;100321.72;5003007;28;1452;-30
2021/06/10 02:08:47;;;;;;;;;;;;;;;27.15;50.43;100323.56;4979218;28;808;-29
2021/06/10 02:11:12;;;;;;;;;;;;;;;27.13;49.73;100317.53;4980059;28;749;-27
2021/06/10 02:13:38;;;;;;;;;;;;;;;27.12;50.08;100324.81;4996400;28;1327;-26
2021/06/10 02:16:04;;;;;;;;;;;;;;;27.15;50.00;100323.56;4996827;28;753;-25
2021/06/10 02:18:30;;;;;;;;;;;;;;;27.16;50.07;100317.13;4996626;28;753;-27
2021/06/10 02:21:02;;;;;;;;;;;;;;;27.12;49.83;100308.63;4980296;28;1017;-26
2021/06/10 02:23:27;;;;;;;;;;;;;;;27.09;50.24;100310.84;5000463;28;807;-29
2021/06/10 02:25:53;;;;;;;;;;;;;;;27.13;49.58;100321.06;5000164;28;1906;-28
2021/06/10 02:28:18;;;;;;;;;;;;;;;27.17;49.81;100315.28;5000433;28;746;-28
2021/06/10 02:30:43;;;;;;;;;;;;;;;27.17;49.28;100315.28;5000371;28;756;-30
2021/06/10 02:33:09;;;;;;;;;;;;;;;27.16;49.77;100319.84;5000196;28;811;-29
2021/06/10 02:35:34;;;;;;;;;;;;;;;27.14;49.56;100321.91;5001262;28;945;-29
2021/06/10 02:38:00;;;;;;;;;;;;;;;27.19;49.43;100319.47;5019217;28;840;-29
2021/06/10 02:40:36;;;;;;;;;;;;;;;27.12;49.39;100316.72;5019874;28;800;-27
2021/06/10 02:43:04;;;;;;;;;;;;;;;27.12;49.85;100321.28;5002102;28;891;-27
2021/06/10 02:45:30;;;;;;;;;;;;;;;27.14;49.48;100319.22;5019450;28;1902;-26
2021/06/10 02:47:56;;;;;;;;;;;;;;;27.15;49.51;100310.06;5019791;28;887;-25
2021/06/10 02:50:21;;;;;;;;;;;;;;;27.13;49.47;100321.06;5019306;28;837;-29
2021/06/10 02:52:48;;;;;;;;;;;;;;;27.14;49.35;100319.22;4999534;28;981;-27
2021/06/10 02:55:13;;;;;;;;;;;;;;;27.15;49.33;100323.56;4999580;28;887;-31
2021/06/10 02:57:39;;;;;;;;;;;;;;;27.20;48.84;100331.09;4982616;28;764;-27
2021/06/10 03:00:05;;;;;;;;;;;;;;;27.18;48.74;100325.88;4982008;28;1103;-29
2021/06/10 03:02:32;;;;;;;;;;;;;;;27.15;49.10;100326.28;5008523;28;1122;-30
2021/06/10 03:04:57;;;;;;;;;;;;;;;27.16;49.00;100330.63;5039156;28;1905;-28
2021/06/10 03:07:23;;;;;;;;;;;;;;;27.16;49.18;100330.63;5006229;28;931;-30
2021/06/10 03:09:48;;;;;;;;;;;;;;;27.14;49.17;100343.50;4982221;28;884;-27
2021/06/10 03:12:14;;;;;;;;;;;;;;;27.19;48.89;100335.69;4999522;28;768;-27
2021/06/10 03:14:40;;;;;;;;;;;;;;;27.17;49.30;100334.19;4982052;28;1100;-29
2021/06/10 03:17:06;;;;;;;;;;;;;;;26.84;44.32;100333.63;4999342;28;828;-27
2021/06/10 03:19:31;;;;;;;;;;;;;;;25.40;43.34;100334.56;4999506;28;844;-31
2021/06/10 03:21:56;;;;;;;;;;;;;;;24.48;44.84;100326.22;4981531;28;973;-30
2021/06/10 03:24:22;;;;;;;;;;;;;;;24.20;45.17;100334.72;4982191;28;1911;-30
2021/06/10 03:26:47;;;;;;;;;;;;;;;24.14;45.08;100332.72;4999286;28;757;-31
2021/06/10 03:29:13;;;;;;;;;;;;;;;23.62;46.27;100316.88;4999308;28;789;-31
2021/06/10 03:31:38;;;;;;;;;;;;;;;23.75;45.76;100318.19;4982043;28;785;-32
2021/06/10 03:34:03;;;;;;;;;;;;;;;23.59;45.96;100322.56;4999316;28;812;-30
2021/06/10 03:36:29;;;;;;;;;;;;;;;23.72;45.68;100322.88;4998871;28;997;-32
2021/06/10 03:38:55;;;;;;;;;;;;;;;23.39;46.17;100316.69;4981431;28;828;-32
2021/06/10 03:41:20;;;;;;;;;;;;;;;23.58;46.14;100321.75;4999081;28;801;-30
2021/06/10 03:43:46;;;;;;;;;;;;;;;23.54;45.99;100333.81;4981642;28;1910;-31
2021/06/10 03:46:12;;;;;;;;;;;;;;;23.57;46.08;100327.28;4999400;28;863;-31
2021/06/10 03:48:37;;;;;;;;;;;;;;;23.71;45.72;100333.78;4998729;28;875;-30
2021/06/10 03:51:08;;;;;;;;;;;;;;;23.78;45.30;100332.13;4998404;28;961;-32
2021/06/10 03:53:33;;;;;;;;;;;;;;;23.94;45.15;100336.59;4998884;28;876;-33
2021/06/10 03:55:59;;;;;;;;;;;;;;;24.53;44.35;100333.75;4998415;28;788;-28
2021/06/10 03:58:24;;;;;;;;;;;;;;;25.09;43.33;100337.31;4998322;28;891;-29
2021/06/10 04:00:49;;;;;;;;;;;;;;;25.38;42.69;100335.72;4998774;28;745;-26
2021/06/10 04:03:15;;;;;;;;;;;;;;;25.40;42.60;100337.25;5019361;28;1134;-23
2021/06/10 04:05:40;;;;;;;;;;;;;;;25.53;42.54;100338.47;5033324;28;1901;-28
2021/06/10 04:08:05;;;;;;;;;;;;;;;25.59;42.51;100340.41;4998338;28;799;-27
2021/06/10 04:10:31;;;;;;;;;;;;;;;25.58;42.45;100340.59;4998809;28;751;-28
2021/06/10 04:12:56;;;;;;;;;;;;;;;25.72;42.14;100334.47;4998031;28;996;-29
2021/06/10 04:15:21;;;;;;;;;;;;;;;25.71;42.19;100335.47;4998235;28;1089;-27
2021/06/10 04:17:47;;;;;;;;;;;;;;;25.60;42.08;100339.41;4998626;28;780;-29
2021/06/10 04:20:12;;;;;;;;;;;;;;;25.58;42.33;100338.75;4998310;28;768;-28
2021/06/10 04:22:37;;;;;;;;;;;;;;;25.52;42.81;100334.13;4997725;28;977;-30
2021/06/10 04:25:03;;;;;;;;;;;;;;;25.55;42.96;100334.59;5000387;28;1906;-26
2021/06/10 04:27:28;;;;;;;;;;;;;;;25.77;42.61;100326.66;5013148;28;872;-27
2021/06/10 04:29:54;;;;;;;;;;;;;;;25.86;42.55;100338.19;5030530;28;1172;-29
2021/06/10 04:32:19;;;;;;;;;;;;;;;25.84;42.43;100334.00;5033554;28;919;-26
2021/06/10 04:34:44;;;;;;;;;;;;;;;25.92;42.57;100329.34;5016578;28;1192;-29
2021/06/10 04:37:09;;;;;;;;;;;;;;;25.94;42.78;100323.81;5003221;28;961;-27
2021/06/10 04:39:35;;;;;;;;;;;;;;;26.01;42.54;100329.25;5015518;28;1414;-30
2021/06/10 04:42:00;;;;;;;;;;;;;;;26.02;42.75;100329.09;5035530;28;978;-28
2021/06/10 04:44:25;;;;;;;;;;;;;;;25.95;42.90;100325.47;5029527;28;1875;-26
2021/06/10 04:46:50;;;;;;;;;;;;;;;26.02;42.65;100328.25;5031544;28;1175;-27
2021/06/10 04:49:16;;;;;;;;;;;;;;;26.04;42.71;100324.34;5035586;28;831;-29
2021/06/10 04:51:41;;;;;;;;;;;;;;;26.00;42.36;100328.44;5006579;28;1020;-31
2021/06/10 04:54:06;;;;;;;;;;;;;;;26.00;42.42;100323.06;4997887;28;782;-31
2021/06/10 04:56:32;;;;;;;;;;;;;;;26.06;42.82;100323.34;4997382;28;814;-27
2021/06/10 04:58:57;;;;;;;;;;;;;;;26.00;43.12;100316.81;4997744;28;855;-32
2021/06/10 05:01:23;;;;;;;;;;;;;;;26.09;42.56;100323.78;4997888;28;791;-29
2021/06/10 05:03:48;;;;;;;;;;;;;;;25.94;42.47;100328.34;5027264;28;1910;-30
2021/06/10 05:06:14;;;;;;;;;;;;;;;26.05;42.58;100325.19;5023451;28;1029;-30
2021/06/10 05:08:39;;;;;;;;;;;;;;;26.28;43.03;100330.47;4997806;28;741;-31
2021/06/10 05:11:04;;;;;;;;;;;;;;;26.32;42.36;100325.53;4997727;28;788;-29
2021/06/10 05:13:29;;;;;;;;;;;;;;;26.13;42.87;100329.63;4997434;28;1069;-29
2021/06/10 05:15:55;;;;;;;;;;;;;;;26.20;43.28;100330.56;4997162;28;927;-33
2021/06/10 05:18:20;;;;;;;;;;;;;;;26.31;43.13;100334.63;5015299;28;1099;-27
2021/06/10 05:20:45;;;;;;;;;;;;;;;26.52;42.75;100333.91;5016371;28;1008;-26
2021/06/10 05:23:11;;;;;;;;;;;;;;;26.56;42.28;100342.44;5016749;28;828;-29
2021/06/10 05:25:36;;;;;;;;;;;;;;;26.61;41.54;100348.09;5017073;28;1918;-33
2021/06/10 05:28:01;;;;;;;;;;;;;;;26.60;42.33;100346.44;5016930;28;807;-31
2021/06/10 05:30:26;;;;;;;;;;;;;;;26.45;42.27;100346.47;5016939;28;899;-34
2021/06/10 05:32:52;;;;;;;;;;;;;;;26.17;42.23;100345.25;5016938;28;847;-31
2021/06/10 05:35:17;;;;;;;;;;;;;;;26.10;42.54;100351.56;5017058;28;724;-31
2021/06/10 05:37:42;;;;;;;;;;;;;;;26.41;42.28;100347.84;5014590;28;969;-30
2021/06/10 05:40:08;;;;;;;;;;;;;;;26.52;41.87;100349.25;5016952;28;835;-30
2021/06/10 05:42:33;;;;;;;;;;;;;;;26.59;42.05;100352.03;5016568;28;776;-33
2021/06/10 05:44:59;;;;;;;;;;;;;;;26.70;41.80;100356.09;5016662;28;1914;-34
2021/06/10 05:47:24;;;;;;;;;;;;;;;26.71;41.84;100353.19;5017049;28;788;-34
2021/06/10 05:49:49;;;;;;;;;;;;;;;26.69;42.11;100343.63;5016421;28;1087;-29
2021/06/10 05:52:15;;;;;;;;;;;;;;;26.78;41.22;100345.19;5001710;28;925;-27
2021/06/10 05:54:40;;;;;;;;;;;;;;;26.96;41.38;100343.94;4997487;28;867;-29
2021/06/10 05:57:05;;;;;;;;;;;;;;;26.97;41.35;100346.44;5000220;28;847;-28
2021/06/10 05:59:31;;;;;;;;;;;;;;;27.09;41.17;100348.66;5001233;28;788;-30
2021/06/10 06:01:56;;;;;;;;;;;;;;;27.11;41.18;100360.09;5001001;28;835;-28
2021/06/10 06:04:22;;;;;;;;;;;;;;;27.26;40.51;100357.31;5039048;28;1957;-30
2021/06/10 06:06:47;;;;;;;;;;;;;;;27.18;40.25;100365.53;5017553;28;967;-30
2021/06/10 06:09:12;;;;;;;;;;;;;;;27.19;40.83;100368.06;5001118;28;720;-30
2021/06/10 06:11:38;;;;;;;;;;;;;;;27.32;40.75;100363.81;5000485;28;807;-33
2021/06/10 06:16:31;;;;;;;;;;;;;;;27.31;40.93;100370.25;5000924;28;799;-29
2021/06/10 06:18:57;;;;;;;;;;;;;;;27.34;40.89;100375.28;5000276;28;811;-26
2021/06/10 06:21:22;;;;;;;;;;;;;;;27.26;40.70;100379.75;4983068;28;1001;-29
2021/06/10 06:23:48;;;;;;;;;;;;;;;27.36;40.83;100371.31;5000851;28;863;-30
2021/06/10 06:26:13;;;;;;;;;;;;;;;27.34;40.55;100377.97;5000200;28;1906;-36
2021/06/10 06:28:40;;;;;;;;;;;;;;;27.10;41.19;100374.63;5000454;28;800;-28
2021/06/10 06:31:05;;;;;;;;;;;;;;;26.47;42.26;100378.66;5000347;28;704;-27
2021/06/10 06:33:31;;;;;;;;;;;;;;;26.40;42.66;100371.31;5008758;28;1376;-39
2021/06/10 06:35:56;;;;;;;;;;;;;;;26.98;41.59;100382.34;5030900;28;1497;-33
2021/06/10 06:38:21;;;;;;;;;;;;;;;27.19;41.25;100378.88;5000393;28;820;-28
2021/06/10 06:40:48;;;;;;;;;;;;;;;27.16;41.29;100375.72;5000481;28;757;-40
2021/06/10 06:43:14;;;;;;;;;;;;;;;27.13;40.89;100375.06;5000184;28;815;-38
2021/06/10 06:45:39;;;;;;;;;;;;;;;27.15;40.91;100377.56;5000080;28;1977;-39
2021/06/10 06:48:04;;;;;;;;;;;;;;;27.33;40.42;100382.53;5000192;28;863;-40
2021/06/10 06:50:30;;;;;;;;;;;;;;;27.33;41.01;100384.38;4999896;28;980;-34
2021/06/10 06:52:55;;;;;;;;;;;;;;;27.27;40.50;100380.59;4999885;28;788;-30
2021/06/10 06:55:20;;;;;;;;;;;;;;;27.08;40.13;100377.50;4999824;28;776;-32
2021/06/10 06:57:46;;;;;;;;;;;;;;;27.10;39.84;100388.97;5000226;28;816;-41
2021/06/10 07:00:11;;;;;;;;;;;;;;;27.06;39.58;100384.13;4999853;28;791;-38
2021/06/10 07:02:37;;;;;;;;;;;;;;;27.08;39.29;100393.69;5009712;28;1121;-29
2021/06/10 07:05:02;;;;;;;;;;;;;;;27.18;39.85;100393.38;5038937;28;1906;-38
2021/06/10 07:07:27;;;;;;;;;;;;;;;27.29;40.13;100388.50;5005608;28;995;-31
2021/06/10 07:09:53;;;;;;;;;;;;;;;27.36;40.29;100400.22;4999192;28;816;-29
2021/06/10 07:12:18;;;;;;;;;;;;;;;27.48;40.29;100397.81;4999724;28;1001;-32
2021/06/10 07:14:43;;;;;;;;;;;;;;;27.47;40.10;100396.16;4999310;28;1489;-31
2021/06/10 07:17:09;;;;;;;;;;;;;;;27.46;40.30;100394.50;4999556;28;753;-42
2021/06/10 07:19:34;;;;;;;;;;;;;;;27.51;40.50;100395.56;4999792;28;768;-41
2021/06/10 07:21:59;;;;;;;;;;;;;;;27.40;40.64;100398.78;4999107;28;1052;-37
2021/06/10 07:24:24;;;;;;;;;;;;;;;27.54;40.57;100398.91;4999121;28;1958;-37
2021/06/10 07:26:50;;;;;;;;;;;;;;;27.60;40.22;100403.53;4999335;28;1024;-30
2021/06/10 07:29:16;;;;;;;;;;;;;;;27.37;40.64;100410.84;4999727;28;819;-39
2021/06/10 07:31:41;;;;;;;;;;;;;;;26.65;40.95;100407.91;4999646;28;743;-39
2021/06/10 07:34:06;;;;;;;;;;;;;;;26.25;42.26;100409.03;4998988;28;792;-39
2021/06/10 07:36:33;;;;;;;;;;;;;;;26.48;42.19;100409.97;4998725;28;1021;-38
2021/06/10 07:38:58;;;;;;;;;;;;;;;26.43;42.40;100409.69;4999364;28;823;-33
2021/06/10 07:41:23;;;;;;;;;;;;;;;26.32;42.72;100410.97;4999209;28;815;-38
2021/06/10 07:43:48;;;;;;;;;;;;;;;26.71;41.98;100406.34;4999450;28;851;-32
2021/06/10 07:46:14;;;;;;;;;;;;;;;26.36;42.20;100409.63;4998747;28;1902;-30
2021/06/10 07:48:39;;;;;;;;;;;;;;;26.62;41.64;100411.84;4998860;28;795;-34
2021/06/10 07:51:06;;;;;;;;;;;;;;;27.17;40.87;100407.94;4999189;28;969;-39
2021/06/10 07:53:32;;;;;;;;;;;;;;;26.98;40.23;100407.47;4998773;28;835;-38
2021/06/10 07:55:58;;;;;;;;;;;;;;;27.32;39.75;100407.88;4998541;28;779;-38
2021/06/10 07:58:24;;;;;;;;;;;;;;;27.60;40.05;100401.69;4998814;28;795;-39
2021/06/10 08:00:49;;;;;;;;;;;;;;;27.67;39.62;100406.28;4998717;28;838;-27
2021/06/10 08:03:15;;;;;;;;;;;;;;;27.56;39.54;100408.47;5019027;28;1094;-38
2021/06/10 08:05:40;;;;;;;;;;;;;;;27.51;38.89;100421.72;5033825;28;1961;-40
2021/06/10 08:08:05;;;;;;;;;;;;;;;27.63;39.08;100409.38;4998565;28;784;-32
2021/06/10 08:10:31;;;;;;;;;;;;;;;27.73;39.36;100411.78;4980614;28;1141;-39
2021/06/10 08:12:56;;;;;;;;;;;;;;;27.75;39.46;100406.19;4996955;28;1131;-39
2021/06/10 08:15:22;;;;;;;;;;;;;;;27.83;39.27;100413.31;5005993;28;1326;-32
2021/06/10 08:17:47;;;;;;;;;;;;;;;27.86;39.25;100423.75;4996677;28;518;-34
2021/06/10 08:20:13;;;;;;;;;;;;;;;27.93;39.28;100424.63;4996315;28;1143;-34
2021/06/10 08:22:39;;;;;;;;;;;;;;;27.86;39.65;100426.44;5016424;28;936;-39
2021/06/10 08:25:05;;;;;;;;;;;;;;;27.91;39.53;100432.09;5016989;28;1973;-38
2021/06/10 08:27:31;;;;;;;;;;;;;;;27.93;39.25;100429.19;5016476;28;976;-26
2021/06/10 08:29:56;;;;;;;;;;;;;;;27.90;39.23;100433.13;5016500;28;835;-35
2021/06/10 08:32:21;;;;;;;;;;;;;;;27.94;39.25;100429.00;5017431;28;819;-28
2021/06/10 08:34:47;;;;;;;;;;;;;;;27.93;39.54;100424.63;5017428;28;1003;-32
2021/06/10 08:37:12;;;;;;;;;;;;;;;27.89;39.42;100438.72;5002073;28;961;-30
2021/06/10 08:39:37;;;;;;;;;;;;;;;27.99;39.56;100433.81;4996988;28;733;-31
2021/06/10 08:42:03;;;;;;;;;;;;;;;27.69;39.69;100437.53;4997803;28;787;-34
2021/06/10 08:44:29;;;;;;;;;;;;;;;27.67;40.05;100436.88;4997457;28;1965;-32
2021/06/10 08:46:54;;;;;;;;;;;;;;;27.92;39.73;100444.59;4979646;28;1309;-38
2021/06/10 08:49:19;;;;;;;;;;;;;;;27.96;39.74;100435.03;4997651;28;792;-33
2021/06/10 08:51:44;;;;;;;;;;;;;;;28.05;39.63;100434.88;4996867;28;1020;-30
2021/06/10 08:54:10;;;;;;;;;;;;;;;28.01;39.43;100444.44;4997344;28;757;-40
2021/06/10 08:56:37;;;;;;;;;;;;;;;28.02;39.63;100441.53;4997270;28;848;-34
2021/06/10 08:59:02;;;;;;;;;;;;;;;28.08;39.52;100442.59;4997190;28;820;-39
2021/06/10 09:01:29;;;;;;;;;;;;;;;28.07;39.14;100449.91;4996563;28;803;-31
2021/06/10 09:03:54;;;;;;;;;;;;;;;28.01;39.10;100447.13;5029167;28;1189;-30
2021/06/10 09:06:20;;;;;;;;;;;;;;;28.00;39.57;100451.69;5021411;28;1963;-32
2021/06/10 09:08:46;;;;;;;;;;;;;;;28.04;39.28;100447.59;4997332;28;848;-30
2021/06/10 09:11:12;;;;;;;;;;;;;;;28.09;39.21;100452.41;4996845;28;756;-34
2021/06/10 09:13:48;;;;;;;;;;;;;;;28.01;39.35;100452.53;4996973;28;1321;-31
2021/06/10 09:16:17;;;;;;;;;;;;;;;27.94;39.52;100453.34;4997029;28;741;-31
2021/06/10 09:18:49;;;;;;;;;;;;;;;27.92;39.74;100455.41;4997114;28;836;-29
2021/06/10 09:21:24;;;;;;;;;;;;;;;27.87;39.77;100461.41;5002539;28;965;-27
2021/06/10 09:23:50;;;;;;;;;;;;;;;27.93;40.21;100453.50;5016600;28;776;-29
2021/06/10 09:26:15;;;;;;;;;;;;;;;27.98;39.96;100457.31;5016279;28;1902;-30
2021/06/10 09:28:42;;;;;;;;;;;;;;;27.96;40.08;100445.84;5016497;28;816;-32
2021/06/10 09:31:08;;;;;;;;;;;;;;;27.99;39.96;100455.44;5015626;28;817;-34
2021/06/10 09:33:40;;;;;;;;;;;;;;;27.92;39.92;100449.16;5015832;28;828;-37
2021/06/10 09:36:05;;;;;;;;;;;;;;;28.04;39.89;100444.03;5010451;28;968;-33
2021/06/10 09:38:31;;;;;;;;;;;;;;;28.17;39.33;100446.00;4996713;28;779;-35
2021/06/10 09:41:03;;;;;;;;;;;;;;;28.21;39.49;100444.59;4996138;28;752;-29
2021/06/10 09:43:44;;;;;;;;;;;;;;;28.23;39.17;100440.63;4996298;28;858;-30
2021/06/10 09:46:09;;;;;;;;;;;;;;;28.25;39.37;100443.13;4995701;28;1953;-30
2021/06/10 09:48:35;;;;;;;;;;;;;;;28.30;39.39;100442.53;4996517;28;866;-37
2021/06/10 09:51:01;;;;;;;;;;;;;;;28.32;39.14;100445.88;4996260;28;962;-37
2021/06/10 09:53:28;;;;;;;;;;;;;;;28.34;39.42;100439.25;4998499;28;1124;-31
2021/06/10 09:56:00;;;;;;;;;;;;;;;28.29;39.33;100439.03;5003491;28;1095;-31
2021/06/10 09:58:25;;;;;;;;;;;;;;;28.42;38.99;100443.69;4996844;28;842;-37
2021/06/10 10:00:55;;;;;;;;;;;;;;;28.43;38.92;100442.66;4996503;28;784;-36
2021/06/10 10:03:28;;;;;;;;;;;;;;;28.60;39.09;100437.75;5000736;28;1153;-34
2021/06/10 10:05:54;;;;;;;;;;;;;;;28.53;38.91;100438.75;5027482;28;1902;-37
2021/06/10 10:08:20;;;;;;;;;;;;;;;28.40;39.26;100428.69;4996271;28;733;-34
2021/06/10 10:10:45;;;;;;;;;;;;;;;28.40;39.23;100437.63;4996221;28;820;-34
2021/06/10 10:13:14;;;;;;;;;;;;;;;28.53;38.85;100434.16;4996533;28;1054;-32
2021/06/10 10:15:39;;;;;;;;;;;;;;;28.57;38.57;100434.59;4978028;28;1262;-34
2021/06/10 10:18:05;;;;;;;;;;;;;;;28.50;38.91;100433.72;4996830;28;866;-37
2021/06/10 10:20:30;;;;;;;;;;;;;;;28.50;38.72;100434.56;4996397;28;984;-33
2021/06/10 10:22:56;;;;;;;;;;;;;;;28.48;38.89;100436.63;4998434;28;830;-31
2021/06/10 10:25:21;;;;;;;;;;;;;;;28.36;39.01;100433.69;4997785;28;1918;-35
2021/06/10 10:27:46;;;;;;;;;;;;;;;28.49;38.84;100427.50;4998483;28;733;-35
2021/06/10 10:30:12;;;;;;;;;;;;;;;28.50;38.85;100425.59;5015661;28;776;-36
2021/06/10 10:32:38;;;;;;;;;;;;;;;28.48;38.92;100426.66;5015685;28;1191;-36
2021/06/10 10:35:34;;;;;;;;;;;;;;;28.58;38.69;100425.44;4997739;28;1362;-36
2021/06/10 10:38:00;;;;;;;;;;;;;;;28.39;39.42;100418.91;4978815;28;1338;-37
2021/06/10 10:40:27;;;;;;;;;;;;;;;28.57;39.15;100431.91;4977934;28;1355;-36
2021/06/10 10:42:52;;;;;;;;;;;;;;;28.41;39.67;100438.50;4998635;28;816;-35
2021/06/10 10:45:24;;;;;;;;;;;;;;;28.46;39.43;100444.94;4999053;28;1906;-34
2021/06/10 10:48:04;;;;;;;;;;;;;;;28.29;39.75;100446.28;4982025;28;1127;-37
2021/06/10 10:50:39;;;;;;;;;;;;;;;28.18;40.13;100447.66;5005217;28;1104;-36
2021/06/10 10:53:08;;;;;;;;;;;;;;;27.82;40.87;100444.91;5002038;28;866;-38
2021/06/10 10:55:34;;;;;;;;;;;;;;;27.53;40.91;100433.19;5018219;28;812;-33
2021/06/10 10:58:06;;;;;;;;;;;;;;;27.57;41.37;100436.34;5019297;28;740;-39
2021/06/10 11:00:51;;;;;;;;;;;;;;;27.59;41.45;100435.13;5018460;28;796;-39
2021/06/10 11:03:16;;;;;;;;;;;;;;;27.55;41.94;100424.88;5019290;28;1180;-39
2021/06/10 11:05:43;;;;;;;;;;;;;;;27.56;41.44;100422.00;5016005;28;1961;-36
2021/06/10 11:08:08;;;;;;;;;;;;;;;27.45;41.77;100423.38;4998883;28;843;-38
2021/06/10 11:10:40;;;;;;;;;;;;;;;27.49;41.49;100421.13;4998859;28;744;-38
2021/06/10 11:13:31;;;;;;;;;;;;;;;27.40;41.60;100417.69;4981747;28;2138;-38
2021/06/10 11:16:03;;;;;;;;;;;;;;;27.36;41.51;100424.53;4975632;28;1680;-37
2021/06/10 11:18:42;;;;;;;;;;;;;;;27.25;41.49;100406.97;5012370;28;932;-36
2021/06/10 11:21:08;;;;;;;;;;;;;;;27.53;40.77;100399.97;5001305;28;1069;-32
2021/06/10 11:23:33;;;;;;;;;;;;;;;27.81;40.56;100405.38;4979274;28;1461;-31
2021/06/10 11:25:58;;;;;;;;;;;;;;;27.83;40.44;100408.75;4979211;28;1968;-36
2021/06/10 11:28:25;;;;;;;;;;;;;;;28.02;39.89;100413.66;4978964;28;776;-36
2021/06/10 11:30:51;;;;;;;;;;;;;;;28.28;39.58;100409.47;4979424;28;832;-37
2021/06/10 11:33:17;;;;;;;;;;;;;;;28.29;39.50;100420.09;4978865;28;851;-34
2021/06/10 11:35:42;;;;;;;;;;;;;;;28.43;39.68;100421.00;4977447;28;890;-32
2021/06/10 11:38:18;;;;;;;;;;;;;;;28.56;39.67;100417.53;4995550;28;822;-36
2021/06/10 11:40:44;;;;;;;;;;;;;;;28.30;39.91;100413.63;4998616;28;733;-32
2021/06/10 11:43:10;;;;;;;;;;;;;;;28.32;39.81;100425.09;4997968;28;797;-30
2021/06/10 11:45:36;;;;;;;;;;;;;;;28.39;39.72;100417.03;4998502;28;1895;-31
2021/06/10 11:48:01;;;;;;;;;;;;;;;28.30;40.43;100424.44;4998096;28;733;-35
2021/06/10 11:50:34;;;;;;;;;;;;;;;28.18;41.00;100420.59;4997878;28;937;-32
2021/06/10 11:53:04;;;;;;;;;;;;;;;28.03;41.47;100415.34;4996935;28;1015;-32
2021/06/10 11:55:30;;;;;;;;;;;;;;;28.22;41.76;100414.63;4997792;28;816;-36
2021/06/10 11:57:56;;;;;;;;;;;;;;;28.22;42.32;100422.75;4997452;28;732;-33
2021/06/10 12:00:35;;;;;;;;;;;;;;;28.29;42.49;100424.66;4997186;28;792;-35
2021/06/10 12:03:01;;;;;;;;;;;;;;;28.35;42.66;100432.00;4996586;28;865;-28
2021/06/10 12:05:27;;;;;;;;;;;;;;;28.29;42.85;100441.72;4996461;28;1955;-37
2021/06/10 12:08:08;;;;;;;;;;;;;;;28.18;43.48;100434.97;4991344;28;958;-36
2021/06/10 12:10:33;;;;;;;;;;;;;;;28.23;43.67;100437.94;5017017;28;785;-35
2021/06/10 12:12:58;;;;;;;;;;;;;;;28.23;43.49;100435.22;5017261;28;811;-34
2021/06/10 12:15:26;;;;;;;;;;;;;;;28.31;43.14;100445.03;5035091;28;1275;-32
2021/06/10 12:17:54;;;;;;;;;;;;;;;28.39;42.82;100448.66;5037051;28;786;-33
2021/06/10 12:20:24;;;;;;;;;;;;;;;28.20;43.18;100454.56;5036705;28;768;-30
2021/06/10 12:22:49;;;;;;;;;;;;;;;28.09;43.48;100460.50;4997545;28;1003;-28
2021/06/10 12:25:16;;;;;;;;;;;;;;;28.10;43.19;100478.41;5009828;28;1918;-34
2021/06/10 12:27:41;;;;;;;;;;;;;;;28.01;41.71;100485.00;4998610;28;1083;-31
2021/06/10 12:30:24;;;;;;;;;;;;;;;28.15;42.07;100486.75;5015274;28;1028;-37
2021/06/10 12:32:50;;;;;;;;;;;;;;;28.40;41.59;100472.81;5016930;28;755;-37
2021/06/10 12:35:19;;;;;;;;;;;;;;;28.48;41.36;100467.25;5016711;28;784;-36
2021/06/10 12:37:53;;;;;;;;;;;;;;;28.44;41.82;100457.88;4982381;28;1109;-33
2021/06/10 12:40:19;;;;;;;;;;;;;;;28.43;41.76;100471.56;4999614;28;804;-36
2021/06/10 12:43:02;;;;;;;;;;;;;;;28.36;41.80;100504.00;5016664;28;819;-39
2021/06/10 12:45:28;;;;;;;;;;;;;;;28.17;42.51;100527.13;5016467;28;1967;-36
2021/06/10 12:47:53;;;;;;;;;;;;;;;28.22;41.94;100535.50;5005712;28;1206;-35
2021/06/10 12:50:19;;;;;;;;;;;;;;;28.19;42.22;100541.28;5016042;28;860;-34
2021/06/10 12:52:46;;;;;;;;;;;;;;;28.24;41.68;100541.53;4997672;28;968;-39